createdAt,value
2019-03-06T00:00:33.782Z,20.57
2019-03-06T00:03:02.637Z,21.40
2019-03-06T00:05:31.275Z,20.75
2019-03-06T00:08:01.767Z,20.95
2019-03-06T00:10:31.150Z,26.45
2019-03-06T00:13:00.051Z,23.07
2019-03-06T00:15:28.708Z,24.60
2019-03-06T00:17:59.908Z,25.12
2019-03-06T00:20:28.525Z,22.02
2019-03-06T00:22:57.202Z,26.33
2019-03-06T00:25:25.873Z,22.60
2019-03-06T00:27:54.705Z,22.60
2019-03-06T00:30:23.293Z,23.47
2019-03-06T00:32:51.851Z,25.80
2019-03-06T00:35:45.956Z,29.57
2019-03-06T00:38:15.469Z,30.43
2019-03-06T00:40:56.891Z,34.60
2019-03-06T00:43:24.819Z,45.83
2019-03-06T00:45:56.220Z,33.63
2019-03-06T00:48:26.724Z,42.75
2019-03-06T00:50:55.790Z,40.08
2019-03-06T00:53:24.699Z,43.90
2019-03-06T00:55:53.370Z,59.15
2019-03-06T00:58:52.368Z,44.98
2019-03-06T01:01:21.212Z,48.42
2019-03-06T01:04:07.300Z,41.28
2019-03-06T01:09:40.886Z,50.28
2019-03-06T01:12:10.481Z,45.17
2019-03-06T01:14:48.193Z,57.40
2019-03-06T01:18:07.864Z,55.88
2019-03-06T01:20:36.745Z,51.20
2019-03-06T01:23:05.510Z,50.85
2019-03-06T01:25:35.924Z,54.23
2019-03-06T01:28:04.471Z,58.08
2019-03-06T01:30:33.165Z,51.95
2019-03-06T01:33:18.118Z,55.58
2019-03-06T01:35:57.001Z,54.88
2019-03-06T01:38:29.775Z,44.75
2019-03-06T01:41:05.883Z,46.05
2019-03-06T01:43:44.872Z,43.98
2019-03-06T01:46:13.394Z,41.77
2019-03-06T01:48:41.981Z,43.55
2019-03-06T01:51:11.697Z,54.40
2019-03-06T01:53:40.333Z,39.95
2019-03-06T01:56:14.007Z,40.28
2019-03-06T01:58:42.679Z,40.05
2019-03-06T02:01:11.259Z,37.83
2019-03-06T02:03:39.848Z,39.83
2019-03-06T02:06:08.725Z,40.30
2019-03-06T02:08:37.259Z,44.95
2019-03-06T02:11:07.972Z,35.65
2019-03-06T02:13:36.524Z,45.80
2019-03-06T02:16:05.173Z,35.45
2019-03-06T02:18:33.681Z,41.70
2019-03-06T02:21:02.186Z,31.90
2019-03-06T02:23:30.764Z,31.73
2019-03-06T02:25:59.356Z,35.98
2019-03-06T02:28:28.035Z,37.55
2019-03-06T02:31:04.148Z,38.10
2019-03-06T02:33:37.234Z,37.70
2019-03-06T02:36:05.868Z,32.97
2019-03-06T02:38:37.404Z,36.63
2019-03-06T02:41:06.165Z,40.88
2019-03-06T02:43:36.852Z,37.42
2019-03-06T02:46:05.734Z,36.30
2019-03-06T02:48:34.526Z,37.33
2019-03-06T02:51:03.033Z,35.43
2019-03-06T02:53:31.518Z,31.80
2019-03-06T02:56:00.211Z,37.05
2019-03-06T02:58:33.312Z,36.40
2019-03-06T03:01:18.397Z,29.67
2019-03-06T03:04:06.562Z,38.40
2019-03-06T03:06:36.705Z,34.05
2019-03-06T03:09:09.721Z,29.42
2019-03-06T03:11:38.293Z,30.80
2019-03-06T03:14:07.076Z,43.68
2019-03-06T03:16:35.696Z,36.80
2019-03-06T03:19:05.890Z,34.85
2019-03-06T03:21:34.710Z,36.53
2019-03-06T03:24:03.217Z,36.23
2019-03-06T03:26:31.899Z,41.08
2019-03-06T03:29:00.353Z,37.20
2019-03-06T03:31:28.999Z,33.28
2019-03-06T03:33:57.585Z,38.13
2019-03-06T03:36:26.151Z,40.30
2019-03-06T03:38:54.648Z,32.40
2019-03-06T03:41:23.568Z,37.00
2019-03-06T03:43:52.049Z,41.33
2019-03-06T03:46:20.681Z,36.55
2019-03-06T03:48:49.363Z,35.23
2019-03-06T03:51:20.448Z,41.08
2019-03-06T03:53:49.326Z,40.27
2019-03-06T03:56:19.429Z,45.05
2019-03-06T03:58:48.064Z,33.50
2019-03-06T04:01:16.548Z,42.27
2019-03-06T04:03:45.104Z,49.40
2019-03-06T04:06:13.597Z,46.55
2019-03-06T04:08:42.089Z,55.63
2019-03-06T04:11:10.575Z,56.68
2019-03-06T04:13:39.069Z,55.52
2019-03-06T04:16:07.560Z,54.95
2019-03-06T04:18:36.153Z,55.60
2019-03-06T04:21:04.924Z,49.75
2019-03-06T04:23:33.702Z,55.48
2019-03-06T04:26:02.239Z,53.63
2019-03-06T04:28:30.721Z,52.55
2019-03-06T04:30:59.202Z,53.55
2019-03-06T04:33:28.074Z,55.23
2019-03-06T04:35:56.562Z,54.60
2019-03-06T04:38:25.175Z,61.30
2019-03-06T04:40:54.123Z,90.55
2019-03-06T04:43:22.878Z,86.70
2019-03-06T04:45:51.438Z,82.22
2019-03-06T04:48:19.936Z,93.70
2019-03-06T04:50:48.580Z,107.37
2019-03-06T04:53:17.078Z,112.20
2019-03-06T04:55:51.138Z,113.57
2019-03-06T04:58:26.278Z,117.95
2019-03-06T05:00:55.022Z,128.82
2019-03-06T05:03:23.546Z,131.40
2019-03-06T05:05:53.999Z,153.78
2019-03-06T05:08:24.668Z,138.03
2019-03-06T05:10:57.062Z,134.67
2019-03-06T05:13:27.225Z,174.32
2019-03-06T05:18:49.247Z,137.65
2019-03-06T05:21:27.316Z,141.07
2019-03-06T05:23:55.635Z,138.92
2019-03-06T05:26:25.756Z,206.50
2019-03-06T05:28:54.474Z,141.85
2019-03-06T05:31:38.074Z,262.85
2019-03-06T05:34:06.884Z,267.73
2019-03-06T05:37:06.210Z,198.00
2019-03-06T05:39:36.754Z,270.70
2019-03-06T05:42:05.281Z,180.75
2019-03-06T05:44:33.893Z,191.28
2019-03-06T05:47:05.024Z,147.40
2019-03-06T05:49:34.018Z,206.95
2019-03-06T05:52:08.276Z,214.42
2019-03-06T05:54:39.584Z,142.35
2019-03-06T05:57:09.843Z,242.22
2019-03-06T05:59:38.331Z,192.57
2019-03-06T06:02:06.999Z,177.97
2019-03-06T06:04:35.599Z,156.52
2019-03-06T06:07:05.099Z,190.77
2019-03-06T06:09:39.437Z,153.12
2019-03-06T06:12:07.991Z,147.13
2019-03-06T06:14:36.490Z,157.30
2019-03-06T06:17:05.016Z,144.65
2019-03-06T06:19:33.799Z,137.82
2019-03-06T06:22:03.921Z,143.95
2019-03-06T06:24:35.206Z,132.37
2019-03-06T06:27:03.691Z,152.60
2019-03-06T06:29:32.337Z,167.37
2019-03-06T06:32:01.190Z,167.20
2019-03-06T06:34:29.846Z,156.82
2019-03-06T06:36:58.435Z,164.03
2019-03-06T06:39:27.213Z,151.65
2019-03-06T06:41:55.745Z,156.78
2019-03-06T06:44:24.607Z,153.40
2019-03-06T06:46:53.110Z,152.55
2019-03-06T06:49:26.043Z,144.50
2019-03-06T06:52:04.386Z,140.75
2019-03-06T06:54:36.736Z,135.43
2019-03-06T06:57:23.767Z,131.87
2019-03-06T07:00:28.187Z,134.97
2019-03-06T07:03:42.159Z,114.55
2019-03-06T07:06:20.955Z,121.57
2019-03-06T07:08:51.206Z,121.65
2019-03-06T07:11:31.692Z,131.20
2019-03-06T07:14:04.650Z,134.70
2019-03-06T07:16:34.785Z,130.35
2019-03-06T07:19:10.785Z,127.78
2019-03-06T07:21:52.784Z,123.58
2019-03-06T07:24:28.848Z,118.85
2019-03-06T07:27:19.498Z,122.33
2019-03-06T07:29:49.640Z,132.07
2019-03-06T07:32:28.708Z,118.53
2019-03-06T07:35:45.537Z,121.10
2019-03-06T07:38:14.097Z,117.20
2019-03-06T07:40:57.527Z,131.87
2019-03-06T07:43:27.728Z,122.28
2019-03-06T07:45:57.921Z,123.15
2019-03-06T07:48:28.358Z,121.15
2019-03-06T07:51:01.188Z,110.92
2019-03-06T07:53:49.227Z,117.47
2019-03-06T07:56:19.350Z,129.65
2019-03-06T07:58:52.034Z,125.22
2019-03-06T08:01:21.268Z,120.10
2019-03-06T08:03:52.933Z,116.80
2019-03-06T08:06:21.527Z,120.82
2019-03-06T08:08:50.022Z,114.82
2019-03-06T08:11:20.275Z,120.02
2019-03-06T08:13:50.782Z,115.25
2019-03-06T08:16:21.233Z,122.55
2019-03-06T08:19:07.717Z,107.40
2019-03-06T08:21:40.706Z,111.28
2019-03-06T08:24:10.812Z,118.45
2019-03-06T08:26:39.502Z,115.10
2019-03-06T08:29:08.143Z,105.25
2019-03-06T08:31:38.308Z,112.68
2019-03-06T08:34:06.908Z,100.35
2019-03-06T08:36:35.422Z,113.50
2019-03-06T08:39:05.125Z,111.90
2019-03-06T08:41:33.606Z,119.97
2019-03-06T08:44:02.099Z,120.35
2019-03-06T08:46:48.296Z,117.62
2019-03-06T08:49:34.301Z,113.65
2019-03-06T08:52:04.448Z,125.22
2019-03-06T08:54:34.579Z,114.03
2019-03-06T08:57:19.747Z,104.10
2019-03-06T09:00:06.154Z,111.35
2019-03-06T09:02:48.183Z,110.65
2019-03-06T09:05:18.392Z,119.75
2019-03-06T09:07:51.471Z,118.72
2019-03-06T09:10:37.654Z,110.90
2019-03-06T09:13:19.669Z,121.37
2019-03-06T09:16:05.883Z,107.67
2019-03-06T09:18:41.789Z,110.88
2019-03-06T09:21:11.923Z,108.75
2019-03-06T09:23:44.759Z,106.52
2019-03-06T09:26:20.775Z,105.87
2019-03-06T09:29:02.643Z,100.80
2019-03-06T09:31:32.757Z,99.52
2019-03-06T09:34:08.776Z,96.97
2019-03-06T09:36:54.868Z,101.22
2019-03-06T09:39:27.839Z,98.37
2019-03-06T09:42:13.999Z,95.32
2019-03-06T09:44:49.865Z,94.22
2019-03-06T09:47:22.658Z,95.62
2019-03-06T09:49:52.811Z,89.45
2019-03-06T09:52:28.577Z,92.47
2019-03-06T09:55:04.412Z,90.22
2019-03-06T09:57:34.514Z,80.85
2019-03-06T10:00:20.635Z,88.27
2019-03-06T10:02:53.446Z,84.92
2019-03-06T10:05:23.583Z,80.90
2019-03-06T10:08:09.855Z,83.60
2019-03-06T10:10:50.507Z,90.75
2019-03-06T10:13:23.391Z,82.15
2019-03-06T10:15:53.539Z,85.75
2019-03-06T10:18:26.943Z,86.45
2019-03-06T10:20:55.480Z,87.25
2019-03-06T10:23:23.960Z,90.17
2019-03-06T10:25:52.474Z,80.20
2019-03-06T10:28:27.495Z,85.35
2019-03-06T10:30:51.092Z,89.00
2019-03-06T10:33:19.598Z,82.08
2019-03-06T10:35:48.099Z,81.55
2019-03-06T10:38:17.170Z,86.02
2019-03-06T10:40:45.772Z,86.90
2019-03-06T10:43:14.294Z,79.37
2019-03-06T10:45:42.768Z,81.53
2019-03-06T10:48:11.277Z,78.67
2019-03-06T10:50:39.744Z,82.00
2019-03-06T10:53:08.354Z,79.97
2019-03-06T10:55:37.041Z,73.72
2019-03-06T10:58:05.592Z,72.65
2019-03-06T11:00:38.248Z,74.27
2019-03-06T11:03:06.799Z,74.30
2019-03-06T11:05:36.667Z,75.70
2019-03-06T11:08:05.287Z,69.22
2019-03-06T11:10:34.395Z,66.97
2019-03-06T11:13:04.946Z,67.95
2019-03-06T11:15:33.607Z,70.28
2019-03-06T11:18:02.105Z,64.62
2019-03-06T11:20:35.378Z,69.50
2019-03-06T11:23:08.919Z,69.17
2019-03-06T11:25:38.423Z,56.80
2019-03-06T11:28:09.059Z,60.75
2019-03-06T11:30:43.646Z,58.87
2019-03-06T11:33:12.300Z,57.27
2019-03-06T11:35:40.880Z,58.80
2019-03-06T11:38:09.586Z,60.25
2019-03-06T11:40:38.159Z,63.38
2019-03-06T11:43:08.227Z,58.85
2019-03-06T11:45:38.245Z,53.30
2019-03-06T11:48:06.813Z,51.73
2019-03-06T11:50:40.811Z,50.95
2019-03-06T11:53:05.875Z,53.60
2019-03-06T11:55:34.373Z,52.15
2019-03-06T11:58:02.988Z,55.98
2019-03-06T12:00:41.837Z,51.33
2019-03-06T12:03:10.555Z,49.58
2019-03-06T12:05:39.127Z,49.00
2019-03-06T12:08:10.045Z,49.90
2019-03-06T12:10:38.650Z,51.10
2019-03-06T12:13:12.002Z,48.55
2019-03-06T12:15:41.031Z,49.75
2019-03-06T12:18:09.531Z,50.12
2019-03-06T12:20:40.039Z,50.65
2019-03-06T12:23:08.248Z,45.98
2019-03-06T12:25:36.724Z,39.03
2019-03-06T12:28:05.273Z,43.78
2019-03-06T12:30:33.802Z,44.38
2019-03-06T12:33:02.309Z,43.73
2019-03-06T12:35:30.798Z,45.03
2019-03-06T12:37:59.372Z,48.42
2019-03-06T12:40:31.769Z,40.33
2019-03-06T12:43:00.242Z,42.55
2019-03-06T12:45:28.766Z,40.63
2019-03-06T12:48:03.423Z,39.30
2019-03-06T12:50:37.515Z,39.48
2019-03-06T12:53:06.079Z,39.75
2019-03-06T12:55:34.614Z,35.58
2019-03-06T12:58:03.099Z,32.67
2019-03-06T13:00:33.222Z,39.00
2019-03-06T13:03:01.718Z,36.03
2019-03-06T13:05:30.190Z,36.68
2019-03-06T13:07:58.703Z,36.45
2019-03-06T13:10:27.175Z,39.35
2019-03-06T13:12:55.673Z,43.28
2019-03-06T13:15:24.900Z,43.92
2019-03-06T13:17:53.837Z,42.03
2019-03-06T13:20:22.300Z,38.40
2019-03-06T13:22:51.696Z,42.85
2019-03-06T13:25:23.565Z,39.48
2019-03-06T13:27:55.366Z,40.05
2019-03-06T13:30:23.845Z,41.42
2019-03-06T13:32:53.954Z,40.00
2019-03-06T13:35:22.463Z,37.58
2019-03-06T13:37:50.946Z,40.70
2019-03-06T13:40:19.448Z,37.13
2019-03-06T13:42:52.558Z,40.33
2019-03-06T13:45:21.351Z,38.50
2019-03-06T13:47:51.031Z,38.40
2019-03-06T13:50:19.724Z,35.28
2019-03-06T13:52:51.354Z,41.23
2019-03-06T13:55:19.953Z,43.90
2019-03-06T13:57:48.514Z,38.05
2019-03-06T14:00:18.824Z,36.98
2019-03-06T14:02:48.337Z,34.38
2019-03-06T14:05:17.003Z,30.62
2019-03-06T14:07:55.652Z,36.50
2019-03-06T14:10:23.823Z,36.13
2019-03-06T14:12:52.562Z,29.42
2019-03-06T14:15:24.221Z,30.05
2019-03-06T14:17:52.760Z,35.68
2019-03-06T14:20:22.619Z,33.35
2019-03-06T14:22:51.321Z,36.88
2019-03-06T14:25:20.218Z,32.17
2019-03-06T14:27:48.951Z,38.58
2019-03-06T14:30:22.808Z,37.28
2019-03-06T14:32:51.553Z,33.50
2019-03-06T14:35:20.105Z,36.58
2019-03-06T14:37:48.567Z,32.15
2019-03-06T14:40:20.336Z,41.00
2019-03-06T14:42:48.823Z,31.65
2019-03-06T14:45:17.310Z,40.60
2019-03-06T14:47:45.799Z,36.60
2019-03-06T14:50:14.276Z,37.48
2019-03-06T14:52:42.768Z,29.70
2019-03-06T14:55:14.799Z,30.88
2019-03-06T14:57:43.492Z,31.05
2019-03-06T15:00:18.140Z,35.68
2019-03-06T15:02:46.898Z,32.03
2019-03-06T15:05:16.006Z,37.93
2019-03-06T15:07:44.531Z,37.55
2019-03-06T15:10:16.961Z,33.45
2019-03-06T15:12:45.488Z,36.63
2019-03-06T15:15:19.154Z,36.45
2019-03-06T15:17:47.809Z,35.20
2019-03-06T15:20:21.495Z,31.87
2019-03-06T15:22:56.825Z,33.95
2019-03-06T15:25:27.961Z,37.05
2019-03-06T15:27:59.022Z,35.08
2019-03-06T15:30:27.553Z,31.50
2019-03-06T15:32:56.030Z,40.92
2019-03-06T15:35:24.588Z,37.70
2019-03-06T15:37:53.116Z,40.90
2019-03-06T15:40:28.373Z,33.20
2019-03-06T15:42:59.050Z,34.45
2019-03-06T15:45:33.032Z,41.18
2019-03-06T15:48:01.615Z,35.13
2019-03-06T15:50:30.229Z,29.37
2019-03-06T15:52:58.724Z,42.45
2019-03-06T15:55:28.164Z,32.05
2019-03-06T15:57:56.686Z,34.83
2019-03-06T16:00:35.449Z,33.38
2019-03-06T16:03:05.594Z,34.10
2019-03-06T16:05:34.323Z,29.45
2019-03-06T16:08:02.817Z,30.85
2019-03-06T16:10:31.314Z,34.27
2019-03-06T16:12:59.821Z,29.52
2019-03-06T16:15:29.028Z,32.83
2019-03-06T16:17:59.404Z,32.73
2019-03-06T16:20:28.030Z,31.62
2019-03-06T16:22:56.546Z,37.67
2019-03-06T16:25:25.098Z,30.82
2019-03-06T16:27:53.897Z,31.35
2019-03-06T16:30:23.672Z,32.03
2019-03-06T16:32:52.245Z,37.58
2019-03-06T16:35:20.751Z,35.88
2019-03-06T16:37:49.267Z,33.60
2019-03-06T16:40:20.047Z,31.75
2019-03-06T16:42:48.909Z,38.35
2019-03-06T16:45:24.187Z,33.38
2019-03-06T16:47:55.872Z,31.65
2019-03-06T16:50:24.586Z,39.05
2019-03-06T16:53:10.646Z,40.45
2019-03-06T16:55:57.334Z,28.45
2019-03-06T16:58:25.902Z,34.58
2019-03-06T17:00:54.548Z,45.28
2019-03-06T17:03:23.319Z,44.85
2019-03-06T17:05:52.030Z,48.75
2019-03-06T17:08:20.563Z,54.88
2019-03-06T17:10:49.267Z,50.98
2019-03-06T17:13:17.820Z,59.18
2019-03-06T17:15:46.339Z,57.55
2019-03-06T17:18:15.113Z,53.87
2019-03-06T17:20:43.700Z,52.90
2019-03-06T17:23:12.172Z,53.35
2019-03-06T17:25:40.664Z,54.63
2019-03-06T17:28:09.141Z,59.73
2019-03-06T17:30:37.964Z,54.35
2019-03-06T17:33:09.624Z,52.15
2019-03-06T17:35:38.434Z,47.13
2019-03-06T17:38:12.018Z,47.35
2019-03-06T17:40:40.579Z,49.10
2019-03-06T17:43:09.142Z,60.45
2019-03-06T17:45:37.625Z,51.65
2019-03-06T17:48:06.653Z,49.93
2019-03-06T17:50:35.202Z,43.95
2019-03-06T17:53:03.764Z,52.17
2019-03-06T17:55:32.254Z,46.73
2019-03-06T17:58:00.840Z,56.28
2019-03-06T18:00:47.252Z,48.30
2019-03-06T18:03:20.074Z,52.80
2019-03-06T18:05:48.627Z,53.90
2019-03-06T18:08:17.157Z,47.08
2019-03-06T18:10:45.770Z,52.23
2019-03-06T18:13:14.405Z,55.43
2019-03-06T18:15:44.403Z,52.40
2019-03-06T18:18:13.069Z,52.70
2019-03-06T18:20:41.602Z,50.43
2019-03-06T18:23:10.156Z,57.83
2019-03-06T18:25:39.097Z,53.68
2019-03-06T18:28:07.862Z,49.27
2019-03-06T18:30:36.344Z,56.13
2019-03-06T18:33:04.830Z,54.70
2019-03-06T18:35:36.339Z,59.88
2019-03-06T18:38:04.977Z,57.70
2019-03-06T18:40:33.471Z,57.93
2019-03-06T18:43:02.165Z,59.18
2019-03-06T18:45:30.810Z,57.00
2019-03-06T18:47:59.360Z,52.03
2019-03-06T18:50:27.829Z,51.80
2019-03-06T18:52:56.651Z,56.73
2019-03-06T18:55:25.209Z,55.55
2019-03-06T18:57:53.720Z,52.27
2019-03-06T19:00:26.910Z,67.03
2019-03-06T19:02:55.417Z,65.95
2019-03-06T19:05:23.956Z,56.88
2019-03-06T19:07:52.523Z,53.10
2019-03-06T19:10:23.106Z,46.63
2019-03-06T19:12:51.925Z,60.00
2019-03-06T19:15:23.675Z,61.05
2019-03-06T19:17:52.200Z,53.13
2019-03-06T19:20:21.241Z,54.93
2019-03-06T19:22:50.304Z,45.15
2019-03-06T19:25:18.945Z,48.50
2019-03-06T19:27:47.731Z,51.00
2019-03-06T19:30:20.861Z,57.20
2019-03-06T19:32:49.335Z,56.98
2019-03-06T19:35:18.275Z,49.67
2019-03-06T19:37:46.794Z,55.60
2019-03-06T19:40:16.634Z,54.20
2019-03-06T19:42:45.321Z,53.42
2019-03-06T19:45:21.730Z,52.93
2019-03-06T19:47:50.787Z,60.10
2019-03-06T19:50:25.589Z,55.78
2019-03-06T19:52:54.745Z,56.95
2019-03-06T19:55:23.609Z,54.70
2019-03-06T19:57:58.313Z,60.23
2019-03-06T20:00:29.464Z,65.10
2019-03-06T20:02:59.903Z,68.45
2019-03-06T20:05:39.529Z,64.90
2019-03-06T20:08:10.625Z,74.35
2019-03-06T20:10:41.940Z,66.15
2019-03-06T20:13:11.060Z,71.60
2019-03-06T20:15:40.363Z,75.32
2019-03-06T20:18:08.931Z,79.65
2019-03-06T20:20:37.441Z,69.25
2019-03-06T20:23:05.919Z,76.40
2019-03-06T20:25:34.427Z,75.17
2019-03-06T20:28:03.064Z,70.10
2019-03-06T20:30:31.690Z,66.28
2019-03-06T20:33:00.260Z,76.25
2019-03-06T20:35:28.745Z,69.17
2019-03-06T20:37:57.632Z,67.60
2019-03-06T20:40:26.108Z,73.57
2019-03-06T20:42:54.710Z,73.42
2019-03-06T20:45:23.262Z,68.50
2019-03-06T20:47:51.769Z,75.22
2019-03-06T20:50:20.795Z,83.70
2019-03-06T20:52:50.379Z,72.30
2019-03-06T20:55:20.904Z,80.28
2019-03-06T20:57:49.489Z,74.17
2019-03-06T21:00:26.004Z,75.95
2019-03-06T21:02:54.699Z,77.80
2019-03-06T21:05:23.372Z,89.87
2019-03-06T21:07:52.052Z,76.30
2019-03-06T21:10:21.100Z,71.53
2019-03-06T21:12:49.754Z,75.35
2019-03-06T21:15:19.455Z,81.60
2019-03-06T21:17:47.923Z,73.47
2019-03-06T21:20:23.138Z,82.88
2019-03-06T21:22:51.619Z,75.45
2019-03-06T21:25:20.966Z,73.72
2019-03-06T21:27:49.749Z,77.45
2019-03-06T21:30:26.699Z,86.75
2019-03-06T21:32:55.246Z,83.52
2019-03-06T21:35:23.747Z,85.17
2019-03-06T21:37:52.372Z,80.05
2019-03-06T21:40:20.912Z,82.55
2019-03-06T21:42:49.800Z,72.55
2019-03-06T21:45:18.298Z,75.45
2019-03-06T21:47:46.784Z,78.87
2019-03-06T21:50:16.297Z,77.67
2019-03-06T21:52:44.893Z,72.67
2019-03-06T21:55:16.563Z,77.03
2019-03-06T21:57:45.296Z,75.12
2019-03-06T22:00:21.916Z,70.40
2019-03-06T22:02:50.565Z,69.15
2019-03-06T22:05:19.067Z,68.52
2019-03-06T22:07:47.536Z,76.62
2019-03-06T22:10:16.585Z,71.80
2019-03-06T22:12:45.445Z,75.57
2019-03-06T22:15:19.257Z,68.12
2019-03-06T22:17:47.722Z,66.42
2019-03-06T22:20:16.866Z,71.00
2019-03-06T22:22:45.505Z,73.10
2019-03-06T22:25:16.352Z,78.80
2019-03-06T22:27:44.843Z,69.75
2019-03-06T22:30:18.409Z,66.47
2019-03-06T22:32:47.003Z,67.67
2019-03-06T22:35:15.482Z,69.35
2019-03-06T22:37:43.977Z,68.65
2019-03-06T22:40:14.970Z,72.58
2019-03-06T22:42:43.511Z,73.00
2019-03-06T22:45:14.225Z,70.65
2019-03-06T22:47:42.807Z,72.60
2019-03-06T22:50:15.251Z,68.83
2019-03-06T22:52:43.738Z,67.92
2019-03-06T22:55:16.547Z,59.55
2019-03-06T22:57:45.003Z,68.50
2019-03-06T23:00:32.689Z,63.87
2019-03-06T23:03:01.156Z,77.42
2019-03-06T23:05:31.474Z,66.60
2019-03-06T23:08:00.002Z,65.72
2019-03-06T23:10:28.713Z,70.37
2019-03-06T23:12:58.614Z,67.03
2019-03-06T23:15:27.333Z,72.20
2019-03-06T23:17:57.468Z,67.03
2019-03-06T23:20:25.994Z,70.05
2019-03-06T23:22:54.502Z,72.72
2019-03-06T23:25:22.981Z,72.12
2019-03-06T23:27:51.473Z,75.10
2019-03-06T23:30:19.943Z,65.00
2019-03-06T23:32:48.757Z,64.45
2019-03-06T23:35:17.237Z,73.57
2019-03-06T23:37:45.777Z,68.37
2019-03-06T23:40:14.259Z,68.33
2019-03-06T23:42:42.755Z,65.35
2019-03-06T23:45:12.379Z,67.95
2019-03-06T23:47:41.083Z,70.03
2019-03-06T23:50:10.918Z,64.15
2019-03-06T23:52:56.988Z,70.03
2019-03-06T23:55:26.326Z,67.45
2019-03-06T23:57:55.103Z,70.47
